sensor_id;sensor_type;location;lat;lon;timestamp;temperature;humidity
52024;DHT22;38038;45.922;13.604;2022-12-29T00:02:19;8.00;99.90
52024;DHT22;38038;45.922;13.604;2022-12-29T00:04:44;8.00;99.90
52024;DHT22;38038;45.922;13.604;2022-12-29T00:07:10;8.00;99.90
52024;DHT22;38038;45.922;13.604;2022-12-29T00:09:36;8.10;99.90
52024;DHT22;38038;45.922;13.604;2022-12-29T00:12:03;8.10;99.90
52024;DHT22;38038;45.922;13.604;2022-12-29T00:14:29;8.00;99.90
52024;DHT22;38038;45.922;13.604;2022-12-29T00:17:13;8.10;99.90
52024;DHT22;38038;45.922;13.604;2022-12-29T00:19:39;8.10;99.90
52024;DHT22;38038;45.922;13.604;2022-12-29T00:22:24;8.10;99.90
52024;DHT22;38038;45.922;13.604;2022-12-29T00:25:09;8.10;99.90
52024;DHT22;38038;45.922;13.604;2022-12-29T00:27:54;8.40;99.90
52024;DHT22;38038;45.922;13.604;2022-12-29T00:30:38;8.50;99.90
52024;DHT22;38038;45.922;13.604;2022-12-29T00:33:28;8.50;99.90
52024;DHT22;38038;45.922;13.604;2022-12-29T00:39:17;8.50;99.90
52024;DHT22;38038;45.922;13.604;2022-12-29T00:41:55;8.50;99.90
52024;DHT22;38038;45.922;13.604;2022-12-29T00:44:39;8.40;99.90
52024;DHT22;38038;45.922;13.604;2022-12-29T00:47:04;8.50;99.90
52024;DHT22;38038;45.922;13.604;2022-12-29T00:49:30;8.50;99.90
52024;DHT22;38038;45.922;13.604;2022-12-29T00:54:25;8.50;99.90
52024;DHT22;38038;45.922;13.604;2022-12-29T00:56:52;8.50;99.90
52024;DHT22;38038;45.922;13.604;2022-12-29T00:59:18;8.30;99.90
52024;DHT22;38038;45.922;13.604;2022-12-29T01:01:45;8.30;99.90
52024;DHT22;38038;45.922;13.604;2022-12-29T01:04:11;8.10;99.90
52024;DHT22;38038;45.922;13.604;2022-12-29T01:06:39;8.10;99.90
52024;DHT22;38038;45.922;13.604;2022-12-29T01:09:06;7.90;99.90
52024;DHT22;38038;45.922;13.604;2022-12-29T01:11:50;8.00;99.90
52024;DHT22;38038;45.922;13.604;2022-12-29T01:14:17;7.90;99.90
52024;DHT22;38038;45.922;13.604;2022-12-29T01:16:43;7.80;99.90
52024;DHT22;38038;45.922;13.604;2022-12-29T01:19:09;7.80;99.90
52024;DHT22;38038;45.922;13.604;2022-12-29T01:21:34;7.80;99.90
52024;DHT22;38038;45.922;13.604;2022-12-29T01:24:00;7.70;99.90
52024;DHT22;38038;45.922;13.604;2022-12-29T01:26:26;7.70;99.90
52024;DHT22;38038;45.922;13.604;2022-12-29T01:28:52;7.70;99.90
52024;DHT22;38038;45.922;13.604;2022-12-29T01:31:18;7.70;99.90
52024;DHT22;38038;45.922;13.604;2022-12-29T01:33:43;7.70;99.90
52024;DHT22;38038;45.922;13.604;2022-12-29T01:36:12;7.70;99.90
52024;DHT22;38038;45.922;13.604;2022-12-29T01:38:39;7.70;99.90
52024;DHT22;38038;45.922;13.604;2022-12-29T01:41:06;7.70;99.90
52024;DHT22;38038;45.922;13.604;2022-12-29T01:43:50;7.80;99.90
52024;DHT22;38038;45.922;13.604;2022-12-29T01:46:41;7.60;99.90
52024;DHT22;38038;45.922;13.604;2022-12-29T01:51:40;7.60;99.90
52024;DHT22;38038;45.922;13.604;2022-12-29T01:54:16;7.50;99.90
52024;DHT22;38038;45.922;13.604;2022-12-29T01:56:42;7.50;99.90
52024;DHT22;38038;45.922;13.604;2022-12-29T01:59:12;7.50;99.90
52024;DHT22;38038;45.922;13.604;2022-12-29T02:01:40;7.50;99.90
52024;DHT22;38038;45.922;13.604;2022-12-29T02:04:08;7.50;99.90
52024;DHT22;38038;45.922;13.604;2022-12-29T02:06:43;7.60;99.90
52024;DHT22;38038;45.922;13.604;2022-12-29T02:09:10;7.60;99.90
52024;DHT22;38038;45.922;13.604;2022-12-29T02:11:45;7.60;99.90
52024;DHT22;38038;45.922;13.604;2022-12-29T02:14:12;7.60;99.90
52024;DHT22;38038;45.922;13.604;2022-12-29T02:32:53;7.70;99.90
52024;DHT22;38038;45.922;13.604;2022-12-29T02:35:33;7.90;99.90
52024;DHT22;38038;45.922;13.604;2022-12-29T02:43:56;7.90;99.90
52024;DHT22;38038;45.922;13.604;2022-12-29T02:49:15;7.80;99.90
52024;DHT22;38038;45.922;13.604;2022-12-29T02:52:01;7.60;99.90
52024;DHT22;38038;45.922;13.604;2022-12-29T02:54:29;7.60;99.90
52024;DHT22;38038;45.922;13.604;2022-12-29T03:00:11;7.80;99.90
52024;DHT22;38038;45.922;13.604;2022-12-29T03:06:07;7.70;99.90
52024;DHT22;38038;45.922;13.604;2022-12-29T03:11:14;7.70;99.90
52024;DHT22;38038;45.922;13.604;2022-12-29T03:14:16;7.70;99.90
52024;DHT22;38038;45.922;13.604;2022-12-29T03:17:26;7.80;99.90
52024;DHT22;38038;45.922;13.604;2022-12-29T03:19:59;7.80;99.90
52024;DHT22;38038;45.922;13.604;2022-12-29T03:22:29;7.80;99.90
52024;DHT22;38038;45.922;13.604;2022-12-29T03:25:04;7.60;99.90
52024;DHT22;38038;45.922;13.604;2022-12-29T03:27:36;7.60;99.90
52024;DHT22;38038;45.922;13.604;2022-12-29T03:30:05;7.60;99.90
52024;DHT22;38038;45.922;13.604;2022-12-29T03:32:35;7.70;99.90
52024;DHT22;38038;45.922;13.604;2022-12-29T03:35:03;7.70;99.90
52024;DHT22;38038;45.922;13.604;2022-12-29T03:37:35;7.70;99.90
52024;DHT22;38038;45.922;13.604;2022-12-29T03:40:04;7.70;99.90
52024;DHT22;38038;45.922;13.604;2022-12-29T03:42:33;7.70;99.90
52024;DHT22;38038;45.922;13.604;2022-12-29T03:44:59;7.80;99.90
52024;DHT22;38038;45.922;13.604;2022-12-29T03:47:25;7.70;99.90
52024;DHT22;38038;45.922;13.604;2022-12-29T03:49:51;7.70;99.90
52024;DHT22;38038;45.922;13.604;2022-12-29T03:52:18;7.60;99.90
52024;DHT22;38038;45.922;13.604;2022-12-29T03:54:43;7.80;99.90
52024;DHT22;38038;45.922;13.604;2022-12-29T03:57:10;8.00;99.90
52024;DHT22;38038;45.922;13.604;2022-12-29T03:59:36;8.00;99.90
52024;DHT22;38038;45.922;13.604;2022-12-29T04:02:02;8.00;99.90
52024;DHT22;38038;45.922;13.604;2022-12-29T04:04:27;7.90;99.90
52024;DHT22;38038;45.922;13.604;2022-12-29T04:06:53;8.00;99.90
52024;DHT22;38038;45.922;13.604;2022-12-29T04:09:19;8.00;99.90
52024;DHT22;38038;45.922;13.604;2022-12-29T04:11:44;8.20;99.90
52024;DHT22;38038;45.922;13.604;2022-12-29T04:14:10;8.30;99.90
52024;DHT22;38038;45.922;13.604;2022-12-29T04:16:36;8.40;99.90
52024;DHT22;38038;45.922;13.604;2022-12-29T04:19:04;8.40;99.90
52024;DHT22;38038;45.922;13.604;2022-12-29T04:21:30;8.30;99.90
52024;DHT22;38038;45.922;13.604;2022-12-29T04:23:56;8.20;99.90
52024;DHT22;38038;45.922;13.604;2022-12-29T04:26:22;8.30;99.90
52024;DHT22;38038;45.922;13.604;2022-12-29T04:28:48;8.30;99.90
52024;DHT22;38038;45.922;13.604;2022-12-29T04:31:13;8.30;99.90
52024;DHT22;38038;45.922;13.604;2022-12-29T04:33:39;8.30;99.90
52024;DHT22;38038;45.922;13.604;2022-12-29T04:36:05;8.30;99.90
52024;DHT22;38038;45.922;13.604;2022-12-29T04:38:31;8.40;99.90
52024;DHT22;38038;45.922;13.604;2022-12-29T04:40:59;8.40;99.90
52024;DHT22;38038;45.922;13.604;2022-12-29T04:43:25;8.40;99.90
52024;DHT22;38038;45.922;13.604;2022-12-29T04:45:51;8.40;99.90
52024;DHT22;38038;45.922;13.604;2022-12-29T04:48:16;8.40;99.90
52024;DHT22;38038;45.922;13.604;2022-12-29T04:50:42;8.40;99.90
52024;DHT22;38038;45.922;13.604;2022-12-29T04:53:08;8.40;99.90
52024;DHT22;38038;45.922;13.604;2022-12-29T04:55:34;8.40;99.90
52024;DHT22;38038;45.922;13.604;2022-12-29T04:58:00;8.40;99.90
52024;DHT22;38038;45.922;13.604;2022-12-29T05:00:25;8.40;99.90
52024;DHT22;38038;45.922;13.604;2022-12-29T05:02:51;8.40;99.90
52024;DHT22;38038;45.922;13.604;2022-12-29T05:05:17;8.40;99.90
52024;DHT22;38038;45.922;13.604;2022-12-29T05:07:43;8.60;99.90
52024;DHT22;38038;45.922;13.604;2022-12-29T05:10:09;8.50;99.90
52024;DHT22;38038;45.922;13.604;2022-12-29T05:12:36;8.60;99.90
52024;DHT22;38038;45.922;13.604;2022-12-29T05:15:03;8.70;99.90
52024;DHT22;38038;45.922;13.604;2022-12-29T05:17:30;8.60;99.90
52024;DHT22;38038;45.922;13.604;2022-12-29T05:19:55;8.60;99.90
52024;DHT22;38038;45.922;13.604;2022-12-29T05:22:21;8.60;99.90
52024;DHT22;38038;45.922;13.604;2022-12-29T05:24:47;8.60;99.90
52024;DHT22;38038;45.922;13.604;2022-12-29T05:27:13;8.60;99.90
52024;DHT22;38038;45.922;13.604;2022-12-29T05:29:39;8.50;99.90
52024;DHT22;38038;45.922;13.604;2022-12-29T05:32:04;8.50;99.90
52024;DHT22;38038;45.922;13.604;2022-12-29T05:34:30;8.40;99.90
52024;DHT22;38038;45.922;13.604;2022-12-29T05:36:56;8.30;99.90
52024;DHT22;38038;45.922;13.604;2022-12-29T05:39:22;8.20;99.90
52024;DHT22;38038;45.922;13.604;2022-12-29T05:41:48;8.10;99.90
52024;DHT22;38038;45.922;13.604;2022-12-29T05:44:14;8.00;99.90
52024;DHT22;38038;45.922;13.604;2022-12-29T05:46:39;8.00;99.90
52024;DHT22;38038;45.922;13.604;2022-12-29T05:49:05;7.90;99.90
52024;DHT22;38038;45.922;13.604;2022-12-29T05:51:31;7.70;99.90
52024;DHT22;38038;45.922;13.604;2022-12-29T05:53:57;7.60;99.90
52024;DHT22;38038;45.922;13.604;2022-12-29T05:56:23;7.50;99.90
52024;DHT22;38038;45.922;13.604;2022-12-29T05:58:48;7.50;99.90
52024;DHT22;38038;45.922;13.604;2022-12-29T06:01:14;7.50;99.90
52024;DHT22;38038;45.922;13.604;2022-12-29T06:03:40;7.50;99.90
52024;DHT22;38038;45.922;13.604;2022-12-29T06:06:06;7.40;99.90
52024;DHT22;38038;45.922;13.604;2022-12-29T06:08:31;7.40;99.90
52024;DHT22;38038;45.922;13.604;2022-12-29T06:10:57;7.50;99.90
52024;DHT22;38038;45.922;13.604;2022-12-29T06:13:23;7.50;99.90
52024;DHT22;38038;45.922;13.604;2022-12-29T06:15:49;7.60;99.90
52024;DHT22;38038;45.922;13.604;2022-12-29T06:18:15;7.70;99.90
52024;DHT22;38038;45.922;13.604;2022-12-29T06:20:40;7.70;99.90
52024;DHT22;38038;45.922;13.604;2022-12-29T06:23:06;7.80;99.90
52024;DHT22;38038;45.922;13.604;2022-12-29T06:25:32;7.70;99.90
52024;DHT22;38038;45.922;13.604;2022-12-29T06:27:59;7.80;99.90
52024;DHT22;38038;45.922;13.604;2022-12-29T06:30:25;7.80;99.90
52024;DHT22;38038;45.922;13.604;2022-12-29T06:32:50;7.90;99.90
52024;DHT22;38038;45.922;13.604;2022-12-29T06:35:16;8.00;99.90
52024;DHT22;38038;45.922;13.604;2022-12-29T06:37:42;8.10;99.90
52024;DHT22;38038;45.922;13.604;2022-12-29T06:40:09;8.10;99.90
52024;DHT22;38038;45.922;13.604;2022-12-29T06:42:34;8.20;99.90
52024;DHT22;38038;45.922;13.604;2022-12-29T06:45:00;8.20;99.90
52024;DHT22;38038;45.922;13.604;2022-12-29T06:47:26;8.10;99.90
52024;DHT22;38038;45.922;13.604;2022-12-29T06:49:52;8.10;99.90
52024;DHT22;38038;45.922;13.604;2022-12-29T06:52:18;8.20;99.90
52024;DHT22;38038;45.922;13.604;2022-12-29T06:54:43;8.20;99.90
52024;DHT22;38038;45.922;13.604;2022-12-29T06:57:09;8.20;99.90
52024;DHT22;38038;45.922;13.604;2022-12-29T06:59:35;8.20;99.90
52024;DHT22;38038;45.922;13.604;2022-12-29T07:02:01;8.20;99.90
52024;DHT22;38038;45.922;13.604;2022-12-29T07:04:28;8.30;99.90
52024;DHT22;38038;45.922;13.604;2022-12-29T07:06:54;8.20;99.90
52024;DHT22;38038;45.922;13.604;2022-12-29T07:09:20;8.30;99.90
52024;DHT22;38038;45.922;13.604;2022-12-29T07:11:46;8.30;99.90
52024;DHT22;38038;45.922;13.604;2022-12-29T07:14:11;8.30;99.90
52024;DHT22;38038;45.922;13.604;2022-12-29T07:16:37;8.40;99.90
52024;DHT22;38038;45.922;13.604;2022-12-29T07:19:03;8.40;99.90
52024;DHT22;38038;45.922;13.604;2022-12-29T07:21:29;8.50;99.90
52024;DHT22;38038;45.922;13.604;2022-12-29T07:23:55;8.50;99.90
52024;DHT22;38038;45.922;13.604;2022-12-29T07:26:21;8.50;99.90
52024;DHT22;38038;45.922;13.604;2022-12-29T07:28:46;8.50;99.90
52024;DHT22;38038;45.922;13.604;2022-12-29T07:31:21;8.50;99.90
52024;DHT22;38038;45.922;13.604;2022-12-29T07:33:47;8.50;99.90
52024;DHT22;38038;45.922;13.604;2022-12-29T07:36:14;8.50;99.90
52024;DHT22;38038;45.922;13.604;2022-12-29T07:38:41;8.50;99.90
52024;DHT22;38038;45.922;13.604;2022-12-29T07:41:07;8.50;99.90
52024;DHT22;38038;45.922;13.604;2022-12-29T07:43:33;8.60;99.90
52024;DHT22;38038;45.922;13.604;2022-12-29T07:45:58;8.60;99.90
52024;DHT22;38038;45.922;13.604;2022-12-29T07:48:24;8.70;99.90
52024;DHT22;38038;45.922;13.604;2022-12-29T07:50:50;8.60;99.90
52024;DHT22;38038;45.922;13.604;2022-12-29T07:53:17;8.70;99.90
52024;DHT22;38038;45.922;13.604;2022-12-29T07:55:42;8.80;99.90
52024;DHT22;38038;45.922;13.604;2022-12-29T07:58:09;8.90;99.90
52024;DHT22;38038;45.922;13.604;2022-12-29T08:00:35;8.90;99.90
52024;DHT22;38038;45.922;13.604;2022-12-29T08:03:01;8.70;99.90
52024;DHT22;38038;45.922;13.604;2022-12-29T08:05:26;8.70;99.90
52024;DHT22;38038;45.922;13.604;2022-12-29T08:07:52;8.70;99.90
52024;DHT22;38038;45.922;13.604;2022-12-29T08:10:18;8.70;99.90
52024;DHT22;38038;45.922;13.604;2022-12-29T08:12:43;8.80;99.90
52024;DHT22;38038;45.922;13.604;2022-12-29T08:15:11;8.80;99.90
52024;DHT22;38038;45.922;13.604;2022-12-29T08:17:37;8.80;99.90
52024;DHT22;38038;45.922;13.604;2022-12-29T08:20:04;8.90;99.90
52024;DHT22;38038;45.922;13.604;2022-12-29T08:22:30;8.90;99.90
52024;DHT22;38038;45.922;13.604;2022-12-29T08:24:55;8.90;99.90
52024;DHT22;38038;45.922;13.604;2022-12-29T08:27:22;8.80;99.90
52024;DHT22;38038;45.922;13.604;2022-12-29T08:29:48;9.00;99.90
52024;DHT22;38038;45.922;13.604;2022-12-29T08:32:14;9.00;99.90
52024;DHT22;38038;45.922;13.604;2022-12-29T08:34:39;9.00;99.90
52024;DHT22;38038;45.922;13.604;2022-12-29T08:37:05;9.00;99.90
52024;DHT22;38038;45.922;13.604;2022-12-29T08:39:31;9.10;99.90
52024;DHT22;38038;45.922;13.604;2022-12-29T08:41:58;9.00;99.90
52024;DHT22;38038;45.922;13.604;2022-12-29T08:44:23;9.10;99.90
52024;DHT22;38038;45.922;13.604;2022-12-29T08:46:49;9.00;99.90
52024;DHT22;38038;45.922;13.604;2022-12-29T08:49:15;9.00;99.90
52024;DHT22;38038;45.922;13.604;2022-12-29T08:51:41;9.00;99.90
52024;DHT22;38038;45.922;13.604;2022-12-29T08:54:06;9.10;99.90
52024;DHT22;38038;45.922;13.604;2022-12-29T08:56:32;9.10;99.90
52024;DHT22;38038;45.922;13.604;2022-12-29T08:58:58;9.10;99.90
52024;DHT22;38038;45.922;13.604;2022-12-29T09:01:23;9.10;99.90
52024;DHT22;38038;45.922;13.604;2022-12-29T09:03:49;9.20;99.90
52024;DHT22;38038;45.922;13.604;2022-12-29T09:06:16;9.20;99.90
52024;DHT22;38038;45.922;13.604;2022-12-29T09:08:43;9.20;99.90
52024;DHT22;38038;45.922;13.604;2022-12-29T09:11:18;9.30;99.90
52024;DHT22;38038;45.922;13.604;2022-12-29T09:13:45;9.30;99.90
52024;DHT22;38038;45.922;13.604;2022-12-29T09:16:11;9.20;99.90
52024;DHT22;38038;45.922;13.604;2022-12-29T09:18:36;9.30;99.90
52024;DHT22;38038;45.922;13.604;2022-12-29T09:21:04;9.20;99.90
52024;DHT22;38038;45.922;13.604;2022-12-29T09:23:30;9.20;99.90
52024;DHT22;38038;45.922;13.604;2022-12-29T09:25:56;9.30;99.90
52024;DHT22;38038;45.922;13.604;2022-12-29T09:28:23;9.30;99.90
52024;DHT22;38038;45.922;13.604;2022-12-29T09:30:49;9.30;99.90
52024;DHT22;38038;45.922;13.604;2022-12-29T09:33:15;9.30;99.90
52024;DHT22;38038;45.922;13.604;2022-12-29T09:35:49;9.30;99.90
52024;DHT22;38038;45.922;13.604;2022-12-29T09:38:15;9.20;99.90
52024;DHT22;38038;45.922;13.604;2022-12-29T09:40:45;9.20;99.90
52024;DHT22;38038;45.922;13.604;2022-12-29T09:43:32;9.10;99.90
52024;DHT22;38038;45.922;13.604;2022-12-29T09:46:25;9.10;99.90
52024;DHT22;38038;45.922;13.604;2022-12-29T09:52:25;9.00;99.90
52024;DHT22;38038;45.922;13.604;2022-12-29T09:55:03;8.90;99.90
52024;DHT22;38038;45.922;13.604;2022-12-29T09:57:40;9.00;99.90
52024;DHT22;38038;45.922;13.604;2022-12-29T10:00:20;9.10;99.90
52024;DHT22;38038;45.922;13.604;2022-12-29T10:02:53;9.20;99.90
52024;DHT22;38038;45.922;13.604;2022-12-29T10:05:36;9.30;99.90
52024;DHT22;38038;45.922;13.604;2022-12-29T10:10:50;9.30;99.90
52024;DHT22;38038;45.922;13.604;2022-12-29T10:16:18;9.30;99.90
52024;DHT22;38038;45.922;13.604;2022-12-29T10:19:01;9.20;99.90
52024;DHT22;38038;45.922;13.604;2022-12-29T10:24:21;9.20;99.90
52024;DHT22;38038;45.922;13.604;2022-12-29T10:26:51;9.30;99.90
52024;DHT22;38038;45.922;13.604;2022-12-29T10:29:20;9.40;99.90
52024;DHT22;38038;45.922;13.604;2022-12-29T10:32:00;9.40;99.90
52024;DHT22;38038;45.922;13.604;2022-12-29T10:34:38;9.50;99.90
52024;DHT22;38038;45.922;13.604;2022-12-29T10:39:54;9.30;99.90
52024;DHT22;38038;45.922;13.604;2022-12-29T10:44:58;9.60;99.90
52024;DHT22;38038;45.922;13.604;2022-12-29T10:47:30;9.70;99.90
52024;DHT22;38038;45.922;13.604;2022-12-29T10:49:58;9.80;99.90
52024;DHT22;38038;45.922;13.604;2022-12-29T10:52:26;9.80;99.90
52024;DHT22;38038;45.922;13.604;2022-12-29T10:54:57;9.70;99.90
52024;DHT22;38038;45.922;13.604;2022-12-29T10:57:34;9.40;99.90
52024;DHT22;38038;45.922;13.604;2022-12-29T11:00:01;9.40;99.90
52024;DHT22;38038;45.922;13.604;2022-12-29T11:05:12;9.60;99.90
52024;DHT22;38038;45.922;13.604;2022-12-29T11:07:41;9.70;99.90
52024;DHT22;38038;45.922;13.604;2022-12-29T11:10:37;9.70;99.90
52024;DHT22;38038;45.922;13.604;2022-12-29T11:13:18;9.70;99.90
52024;DHT22;38038;45.922;13.604;2022-12-29T11:15:49;9.80;99.90
52024;DHT22;38038;45.922;13.604;2022-12-29T11:18:24;9.80;99.90
52024;DHT22;38038;45.922;13.604;2022-12-29T11:20:58;9.90;99.90
52024;DHT22;38038;45.922;13.604;2022-12-29T11:23:31;9.90;99.90
52024;DHT22;38038;45.922;13.604;2022-12-29T11:26:25;9.80;99.90
52024;DHT22;38038;45.922;13.604;2022-12-29T11:31:47;9.80;99.90
52024;DHT22;38038;45.922;13.604;2022-12-29T11:34:24;9.80;99.90
52024;DHT22;38038;45.922;13.604;2022-12-29T11:36:53;9.80;99.90
52024;DHT22;38038;45.922;13.604;2022-12-29T11:39:36;9.80;99.90
52024;DHT22;38038;45.922;13.604;2022-12-29T11:42:03;9.80;99.90
52024;DHT22;38038;45.922;13.604;2022-12-29T11:44:38;9.80;99.90
52024;DHT22;38038;45.922;13.604;2022-12-29T11:47:11;9.80;99.90
52024;DHT22;38038;45.922;13.604;2022-12-29T11:49:38;9.90;99.90
52024;DHT22;38038;45.922;13.604;2022-12-29T11:52:04;9.90;99.90
52024;DHT22;38038;45.922;13.604;2022-12-29T11:54:33;9.90;99.90
52024;DHT22;38038;45.922;13.604;2022-12-29T11:57:09;9.90;99.90
52024;DHT22;38038;45.922;13.604;2022-12-29T11:59:40;9.80;99.90
52024;DHT22;38038;45.922;13.604;2022-12-29T12:05:03;9.80;99.90
52024;DHT22;38038;45.922;13.604;2022-12-29T12:10:04;9.70;99.90
52024;DHT22;38038;45.922;13.604;2022-12-29T12:15:08;10.00;99.90
52024;DHT22;38038;45.922;13.604;2022-12-29T12:18:09;10.10;99.90
52024;DHT22;38038;45.922;13.604;2022-12-29T12:20:44;10.20;99.90
52024;DHT22;38038;45.922;13.604;2022-12-29T12:28:28;10.30;99.90
52024;DHT22;38038;45.922;13.604;2022-12-29T12:34:16;10.60;99.90
52024;DHT22;38038;45.922;13.604;2022-12-29T12:39:47;10.90;99.90
52024;DHT22;38038;45.922;13.604;2022-12-29T12:59:11;10.90;99.90
52024;DHT22;38038;45.922;13.604;2022-12-29T13:01:45;10.90;99.90
52024;DHT22;38038;45.922;13.604;2022-12-29T13:07:42;10.90;99.90
52024;DHT22;38038;45.922;13.604;2022-12-29T13:10:23;11.00;99.90
52024;DHT22;38038;45.922;13.604;2022-12-29T13:18:31;11.00;99.90
52024;DHT22;38038;45.922;13.604;2022-12-29T13:26:17;10.70;99.90
52024;DHT22;38038;45.922;13.604;2022-12-29T13:32:04;10.60;99.90
52024;DHT22;38038;45.922;13.604;2022-12-29T13:37:07;10.60;99.90
52024;DHT22;38038;45.922;13.604;2022-12-29T13:39:47;10.60;99.90
52024;DHT22;38038;45.922;13.604;2022-12-29T13:42:17;10.60;99.90
52024;DHT22;38038;45.922;13.604;2022-12-29T13:44:47;10.60;99.90
52024;DHT22;38038;45.922;13.604;2022-12-29T13:47:25;10.60;99.90
52024;DHT22;38038;45.922;13.604;2022-12-29T13:49:52;10.70;99.90
52024;DHT22;38038;45.922;13.604;2022-12-29T13:52:28;10.70;99.90
52024;DHT22;38038;45.922;13.604;2022-12-29T13:55:17;10.70;99.90
52024;DHT22;38038;45.922;13.604;2022-12-29T13:57:48;10.60;99.90
52024;DHT22;38038;45.922;13.604;2022-12-29T14:00:20;10.60;99.90
52024;DHT22;38038;45.922;13.604;2022-12-29T14:02:51;10.60;99.90
52024;DHT22;38038;45.922;13.604;2022-12-29T14:05:31;10.60;99.90
52024;DHT22;38038;45.922;13.604;2022-12-29T14:08:02;10.60;99.90
52024;DHT22;38038;45.922;13.604;2022-12-29T14:10:34;10.70;99.90
52024;DHT22;38038;45.922;13.604;2022-12-29T14:15:42;10.50;99.90
52024;DHT22;38038;45.922;13.604;2022-12-29T14:18:26;10.60;99.90
52024;DHT22;38038;45.922;13.604;2022-12-29T14:20:58;10.60;99.90
52024;DHT22;38038;45.922;13.604;2022-12-29T14:28:37;10.70;99.90
52024;DHT22;38038;45.922;13.604;2022-12-29T14:37:21;10.60;99.90
52024;DHT22;38038;45.922;13.604;2022-12-29T14:39:35;10.60;99.90
52024;DHT22;38038;45.922;13.604;2022-12-29T14:47:33;10.60;99.90
52024;DHT22;38038;45.922;13.604;2022-12-29T14:57:51;10.50;99.90
52024;DHT22;38038;45.922;13.604;2022-12-29T15:00:22;10.50;99.90
52024;DHT22;38038;45.922;13.604;2022-12-29T15:05:54;10.50;99.90
52024;DHT22;38038;45.922;13.604;2022-12-29T15:08:31;10.40;99.90
52024;DHT22;38038;45.922;13.604;2022-12-29T15:11:01;10.50;99.90
52024;DHT22;38038;45.922;13.604;2022-12-29T15:13:37;10.40;99.90
52024;DHT22;38038;45.922;13.604;2022-12-29T15:16:04;10.40;99.90
52024;DHT22;38038;45.922;13.604;2022-12-29T15:18:32;10.40;99.90
52024;DHT22;38038;45.922;13.604;2022-12-29T15:21:00;10.40;99.90
52024;DHT22;38038;45.922;13.604;2022-12-29T15:23:27;10.40;99.90
52024;DHT22;38038;45.922;13.604;2022-12-29T15:25:57;10.30;99.90
52024;DHT22;38038;45.922;13.604;2022-12-29T15:28:25;10.30;99.90
52024;DHT22;38038;45.922;13.604;2022-12-29T15:31:03;10.20;99.90
52024;DHT22;38038;45.922;13.604;2022-12-29T15:33:29;10.20;99.90
52024;DHT22;38038;45.922;13.604;2022-12-29T15:36:01;10.20;99.90
52024;DHT22;38038;45.922;13.604;2022-12-29T15:38:29;10.10;99.90
52024;DHT22;38038;45.922;13.604;2022-12-29T15:41:00;10.10;99.90
52024;DHT22;38038;45.922;13.604;2022-12-29T15:46:12;10.20;99.90
52024;DHT22;38038;45.922;13.604;2022-12-29T15:48:38;10.20;99.90
52024;DHT22;38038;45.922;13.604;2022-12-29T15:54:18;10.00;99.90
52024;DHT22;38038;45.922;13.604;2022-12-29T15:56:45;10.00;99.90
52024;DHT22;38038;45.922;13.604;2022-12-29T15:59:31;10.00;99.90
52024;DHT22;38038;45.922;13.604;2022-12-29T16:01:59;10.00;99.90
52024;DHT22;38038;45.922;13.604;2022-12-29T16:04:27;9.90;99.90
52024;DHT22;38038;45.922;13.604;2022-12-29T16:06:57;9.90;99.90
52024;DHT22;38038;45.922;13.604;2022-12-29T16:09:33;9.90;99.90
52024;DHT22;38038;45.922;13.604;2022-12-29T16:12:05;9.90;99.90
52024;DHT22;38038;45.922;13.604;2022-12-29T16:17:00;10.00;99.90
52024;DHT22;38038;45.922;13.604;2022-12-29T16:19:28;9.90;99.90
52024;DHT22;38038;45.922;13.604;2022-12-29T16:21:54;10.00;99.90
52024;DHT22;38038;45.922;13.604;2022-12-29T16:24:26;10.00;99.90
52024;DHT22;38038;45.922;13.604;2022-12-29T16:29:25;9.90;99.90
52024;DHT22;38038;45.922;13.604;2022-12-29T16:31:56;9.90;99.90
52024;DHT22;38038;45.922;13.604;2022-12-29T16:37:32;9.90;99.90
52024;DHT22;38038;45.922;13.604;2022-12-29T16:40:37;10.00;99.90
52024;DHT22;38038;45.922;13.604;2022-12-29T16:43:04;9.90;99.90
52024;DHT22;38038;45.922;13.604;2022-12-29T16:50:42;9.90;99.90
52024;DHT22;38038;45.922;13.604;2022-12-29T16:53:25;9.80;99.90
52024;DHT22;38038;45.922;13.604;2022-12-29T16:55:53;9.80;99.90
52024;DHT22;38038;45.922;13.604;2022-12-29T16:58:22;9.80;99.90
52024;DHT22;38038;45.922;13.604;2022-12-29T17:00:49;9.80;99.90
52024;DHT22;38038;45.922;13.604;2022-12-29T17:03:17;9.80;99.90
52024;DHT22;38038;45.922;13.604;2022-12-29T17:05:43;9.80;99.90
52024;DHT22;38038;45.922;13.604;2022-12-29T17:08:19;9.70;99.90
52024;DHT22;38038;45.922;13.604;2022-12-29T17:10:53;9.60;99.90
52024;DHT22;38038;45.922;13.604;2022-12-29T17:13:38;9.50;99.90
52024;DHT22;38038;45.922;13.604;2022-12-29T17:16:05;9.50;99.90
52024;DHT22;38038;45.922;13.604;2022-12-29T17:18:34;9.50;99.90
52024;DHT22;38038;45.922;13.604;2022-12-29T17:21:01;9.60;99.90
52024;DHT22;38038;45.922;13.604;2022-12-29T17:23:28;9.60;99.90
52024;DHT22;38038;45.922;13.604;2022-12-29T17:25:55;9.60;99.90
52024;DHT22;38038;45.922;13.604;2022-12-29T17:28:29;9.60;99.90
52024;DHT22;38038;45.922;13.604;2022-12-29T17:31:05;9.60;99.90
52024;DHT22;38038;45.922;13.604;2022-12-29T17:33:36;9.60;99.90
52024;DHT22;38038;45.922;13.604;2022-12-29T17:36:02;9.60;99.90
52024;DHT22;38038;45.922;13.604;2022-12-29T17:38:30;9.60;99.90
52024;DHT22;38038;45.922;13.604;2022-12-29T17:40:57;9.60;99.90
52024;DHT22;38038;45.922;13.604;2022-12-29T17:43:23;9.60;99.90
52024;DHT22;38038;45.922;13.604;2022-12-29T17:45:54;9.60;99.90
52024;DHT22;38038;45.922;13.604;2022-12-29T17:48:20;9.60;99.90
52024;DHT22;38038;45.922;13.604;2022-12-29T17:50:48;9.50;99.90
52024;DHT22;38038;45.922;13.604;2022-12-29T17:53:18;9.50;99.90
52024;DHT22;38038;45.922;13.604;2022-12-29T17:55:44;9.50;99.90
52024;DHT22;38038;45.922;13.604;2022-12-29T17:58:31;9.50;99.90
52024;DHT22;38038;45.922;13.604;2022-12-29T18:00:59;9.50;99.90
52024;DHT22;38038;45.922;13.604;2022-12-29T18:03:36;9.40;99.90
52024;DHT22;38038;45.922;13.604;2022-12-29T18:06:03;9.50;99.90
52024;DHT22;38038;45.922;13.604;2022-12-29T18:08:31;9.50;99.90
52024;DHT22;38038;45.922;13.604;2022-12-29T18:10:59;9.60;99.90
52024;DHT22;38038;45.922;13.604;2022-12-29T18:13:27;9.60;99.90
52024;DHT22;38038;45.922;13.604;2022-12-29T18:15:54;9.60;99.90
52024;DHT22;38038;45.922;13.604;2022-12-29T18:18:25;9.70;99.90
52024;DHT22;38038;45.922;13.604;2022-12-29T18:20:58;9.60;99.90
52024;DHT22;38038;45.922;13.604;2022-12-29T18:23:25;9.70;99.90
52024;DHT22;38038;45.922;13.604;2022-12-29T18:26:06;9.60;99.90
52024;DHT22;38038;45.922;13.604;2022-12-29T18:28:36;9.60;99.90
52024;DHT22;38038;45.922;13.604;2022-12-29T18:31:02;9.60;99.90
52024;DHT22;38038;45.922;13.604;2022-12-29T18:33:28;9.60;99.90
52024;DHT22;38038;45.922;13.604;2022-12-29T18:36:02;9.60;99.90